Time;durP1;ratioP1;P1;durP2;ratioP2;P2;SDS_P1;SDS_P2;PMS_P1;PMS_P2;Temp;Humidity;BMP_temperature;BMP_pressure;BME280_temperature;BME280_humidity;BME280_pressure;Samples;Min_cycle;Max_cycle;Signal;HPM_P1;HPM_P2
2022/05/10 00:02:06;;;;;;;3.53;3.33;;;16.70;99.90;;;;;;5035209;28;20212;-72
2022/05/10 00:04:34;;;;;;;3.33;3.05;;;16.80;99.90;;;;;;5025101;28;20243;-72
2022/05/10 00:07:02;;;;;;;3.72;3.35;;;16.70;99.90;;;;;;5039399;28;20265;-72
2022/05/10 00:09:30;;;;;;;4.60;4.20;;;16.70;99.90;;;;;;5033943;28;20251;-73
2022/05/10 00:12:00;;;;;;;3.55;3.35;;;16.70;99.90;;;;;;5038749;28;20235;-73
2022/05/10 00:14:29;;;;;;;3.80;3.50;;;16.70;99.90;;;;;;5031690;28;20201;-73
2022/05/10 00:16:56;;;;;;;3.67;3.45;;;16.70;99.90;;;;;;5030881;28;20217;-73
2022/05/10 00:19:27;;;;;;;2.92;2.70;;;16.60;99.90;;;;;;5030905;28;20235;-73
2022/05/10 00:21:55;;;;;;;3.88;3.58;;;16.40;99.90;;;;;;5031127;28;20577;-71
2022/05/10 00:24:23;;;;;;;4.18;3.83;;;16.30;99.90;;;;;;5030968;28;20215;-73
2022/05/10 00:26:52;;;;;;;3.55;3.25;;;16.40;99.90;;;;;;5030677;28;20259;-73
2022/05/10 00:29:21;;;;;;;5.28;3.95;;;16.40;99.90;;;;;;5024501;28;20755;-73
2022/05/10 00:31:49;;;;;;;3.78;3.47;;;16.40;99.90;;;;;;5025893;28;20224;-73
2022/05/10 00:34:18;;;;;;;4.60;3.63;;;16.50;99.90;;;;;;5028139;28;20254;-73
2022/05/10 00:36:47;;;;;;;4.05;3.40;;;16.50;99.90;;;;;;5032168;28;20769;-73
2022/05/10 00:39:15;;;;;;;4.35;3.97;;;16.50;99.90;;;;;;5027251;28;20201;-73
2022/05/10 00:41:53;;;;;;;3.58;3.28;;;16.40;99.90;;;;;;5030691;28;20719;-71
2022/05/10 00:44:28;;;;;;;4.82;3.55;;;16.30;99.90;;;;;;5030547;28;20610;-73
2022/05/10 00:47:05;;;;;;;3.58;3.25;;;16.30;99.90;;;;;;5030753;28;20213;-73
2022/05/10 00:49:39;;;;;;;3.80;3.47;;;16.20;99.90;;;;;;5030671;28;20200;-73
2022/05/10 00:52:12;;;;;;;4.18;3.83;;;16.20;99.90;;;;;;5029985;28;20224;-72
2022/05/10 00:54:46;;;;;;;4.60;3.20;;;16.20;99.90;;;;;;5030834;28;20626;-73
2022/05/10 00:57:23;;;;;;;4.20;3.60;;;16.20;99.90;;;;;;5030663;28;20270;-72
2022/05/10 00:59:59;;;;;;;5.65;3.65;;;16.10;99.90;;;;;;5030964;28;20212;-71
2022/05/10 01:02:34;;;;;;;4.10;3.80;;;15.90;99.90;;;;;;5034289;28;20210;-72
2022/05/10 01:05:10;;;;;;;4.68;4.28;;;15.80;99.90;;;;;;5035265;28;20207;-72
2022/05/10 01:07:44;;;;;;;4.00;3.50;;;15.80;99.90;;;;;;5030553;28;20294;-72
2022/05/10 01:10:24;;;;;;;4.68;4.38;;;15.80;99.90;;;;;;5030405;28;20250;-72
2022/05/10 01:12:59;;;;;;;4.05;3.53;;;15.80;99.90;;;;;;5029538;28;20200;-72
2022/05/10 01:15:29;;;;;;;5.43;3.28;;;15.80;99.90;;;;;;5035792;28;20310;-71
2022/05/10 01:17:59;;;;;;;4.00;3.70;;;15.90;99.90;;;;;;5036739;28;20303;-72
2022/05/10 01:20:33;;;;;;;3.47;3.28;;;15.90;99.90;;;;;;5034877;28;20321;-71
2022/05/10 01:23:25;;;;;;;4.60;4.30;;;15.90;99.90;;;;;;5031921;28;20287;-72
2022/05/10 01:26:00;;;;;;;4.03;3.72;;;15.90;99.90;;;;;;5037908;28;20275;-72
2022/05/10 01:28:31;;;;;;;4.05;3.75;;;15.70;99.90;;;;;;5025358;28;20643;-72
2022/05/10 01:31:03;;;;;;;4.15;3.83;;;15.60;99.90;;;;;;5042163;28;20252;-71
2022/05/10 01:33:36;;;;;;;3.50;3.30;;;15.60;99.90;;;;;;5029932;28;20232;-72
2022/05/10 01:36:24;;;;;;;3.75;3.45;;;15.60;99.90;;;;;;5028723;28;20232;-72
2022/05/10 01:38:59;;;;;;;4.45;4.00;;;15.70;99.90;;;;;;5037705;28;20240;-72
2022/05/10 01:41:36;;;;;;;3.70;3.50;;;15.70;99.90;;;;;;5030768;28;20723;-71
2022/05/10 01:44:15;;;;;;;3.85;3.55;;;15.70;99.90;;;;;;5035716;28;20208;-71
2022/05/10 01:46:46;;;;;;;4.70;4.30;;;15.80;99.90;;;;;;5028767;28;20244;-71
2022/05/10 01:49:21;;;;;;;4.63;4.30;;;15.70;99.90;;;;;;5046287;28;20200;-71
2022/05/10 01:51:53;;;;;;;3.97;3.72;;;15.70;99.90;;;;;;5034357;28;20224;-72
2022/05/10 01:54:58;;;;;;;4.10;3.80;;;15.60;99.90;;;;;;5040489;28;20213;-72
2022/05/10 01:57:28;;;;;;;4.47;4.07;;;15.50;99.90;;;;;;4999700;28;20253;-72
2022/05/10 02:00:06;;;;;;;5.20;4.65;;;15.40;99.90;;;;;;5030277;28;20231;-73
2022/05/10 02:02:39;;;;;;;4.55;4.15;;;15.20;99.90;;;;;;5040917;28;20657;-70
2022/05/10 02:05:15;;;;;;;4.30;4.00;;;15.10;99.90;;;;;;5032094;28;20258;-72
2022/05/10 02:07:47;;;;;;;4.25;3.85;;;15.00;99.90;;;;;;5032422;28;20220;-71
2022/05/10 02:10:22;;;;;;;4.47;4.18;;;15.10;99.90;;;;;;5037578;28;20297;-72
2022/05/10 02:12:58;;;;;;;4.05;3.78;;;15.10;99.90;;;;;;5037600;28;20291;-73
2022/05/10 02:15:35;;;;;;;3.78;3.53;;;15.10;99.90;;;;;;5034845;28;20274;-72
2022/05/10 02:18:09;;;;;;;4.60;4.30;;;15.10;99.90;;;;;;5039497;28;20306;-72
2022/05/10 02:20:49;;;;;;;4.30;4.00;;;15.10;99.90;;;;;;5034741;28;20255;-73
2022/05/10 02:23:21;;;;;;;6.05;4.55;;;15.20;99.90;;;;;;5029348;28;20225;-73
2022/05/10 02:25:55;;;;;;;4.78;4.40;;;15.30;99.90;;;;;;5032967;28;20282;-73
2022/05/10 02:28:31;;;;;;;7.35;4.65;;;15.30;99.90;;;;;;5040525;28;20810;-73
2022/05/10 02:31:07;;;;;;;4.53;4.22;;;15.30;99.90;;;;;;5031982;28;20360;-73
2022/05/10 02:33:34;;;;;;;4.90;4.60;;;15.30;99.90;;;;;;5035111;28;20204;-73
2022/05/10 02:36:02;;;;;;;4.20;3.90;;;15.30;99.90;;;;;;5031415;28;20406;-73
2022/05/10 02:38:33;;;;;;;5.00;4.70;;;15.20;99.90;;;;;;5038069;28;20270;-73
2022/05/10 02:41:04;;;;;;;4.53;4.10;;;15.20;99.90;;;;;;5034124;28;20249;-73
2022/05/10 02:43:35;;;;;;;5.20;4.90;;;15.20;99.90;;;;;;5035572;28;20291;-73
2022/05/10 02:46:04;;;;;;;5.15;4.75;;;15.10;99.90;;;;;;5038032;28;20220;-73
2022/05/10 02:48:34;;;;;;;6.00;5.13;;;15.00;99.90;;;;;;5031011;28;20536;-71
2022/05/10 02:51:03;;;;;;;5.55;5.05;;;14.90;99.90;;;;;;5035399;28;20283;-73
2022/05/10 02:53:31;;;;;;;5.63;5.13;;;14.70;99.90;;;;;;5029861;28;20312;-73
2022/05/10 02:56:02;;;;;;;5.25;4.85;;;14.60;99.90;;;;;;5037193;28;20311;-73
2022/05/10 02:58:34;;;;;;;5.90;5.40;;;14.60;99.90;;;;;;5028639;28;20295;-73
2022/05/10 03:01:07;;;;;;;6.53;5.63;;;14.50;99.90;;;;;;5041313;28;20257;-73
2022/05/10 03:03:35;;;;;;;5.30;4.90;;;14.40;99.90;;;;;;5030292;28;20658;-73
2022/05/10 03:06:04;;;;;;;6.10;5.60;;;14.40;99.90;;;;;;5025657;28;20303;-73
2022/05/10 03:08:32;;;;;;;6.45;5.95;;;14.30;99.90;;;;;;5036696;28;20207;-73
2022/05/10 03:11:00;;;;;;;6.10;5.55;;;14.40;99.90;;;;;;5038201;28;20204;-73
2022/05/10 03:13:29;;;;;;;5.60;5.20;;;14.40;99.90;;;;;;5038357;28;20208;-73
2022/05/10 03:15:56;;;;;;;6.47;5.88;;;14.50;99.90;;;;;;5036430;28;20212;-73
2022/05/10 03:18:26;;;;;;;5.72;5.22;;;14.60;99.90;;;;;;5041353;28;20251;-73
2022/05/10 03:20:54;;;;;;;5.78;5.28;;;14.60;99.90;;;;;;5035367;28;20259;-73
2022/05/10 03:23:21;;;;;;;7.53;5.43;;;14.60;99.90;;;;;;5039460;28;20291;-72
2022/05/10 03:25:49;;;;;;;6.28;5.82;;;14.60;99.90;;;;;;5033623;28;20225;-73
2022/05/10 03:28:17;;;;;;;6.07;5.68;;;14.70;99.90;;;;;;5043253;28;20227;-73
2022/05/10 03:30:45;;;;;;;7.22;5.90;;;14.70;99.90;;;;;;5033398;28;20197;-72
2022/05/10 03:33:14;;;;;;;5.20;4.70;;;14.70;99.90;;;;;;5041134;28;20208;-72
2022/05/10 03:36:09;;;;;;;4.97;4.57;;;14.70;99.90;;;;;;5029514;28;20240;-74
2022/05/10 03:38:37;;;;;;;5.22;4.93;;;14.80;99.90;;;;;;5036659;28;20662;-73
2022/05/10 03:41:05;;;;;;;5.90;5.50;;;14.80;99.90;;;;;;5035763;28;20192;-74
2022/05/10 03:43:33;;;;;;;6.05;5.45;;;14.70;99.90;;;;;;5034347;28;20660;-74
2022/05/10 03:46:06;;;;;;;4.25;4.00;;;14.60;99.90;;;;;;5038292;28;20792;-74
2022/05/10 03:48:35;;;;;;;5.97;5.47;;;14.60;99.90;;;;;;5028652;28;20284;-74
2022/05/10 03:51:03;;;;;;;5.93;5.53;;;14.60;99.90;;;;;;5037431;28;20228;-73
2022/05/10 03:53:32;;;;;;;6.13;5.72;;;14.50;99.90;;;;;;5027702;28;20204;-73
2022/05/10 03:56:00;;;;;;;6.03;5.50;;;14.40;99.90;;;;;;5039111;28;20311;-74
2022/05/10 03:58:28;;;;;;;6.20;5.65;;;14.30;99.90;;;;;;5029445;28;20295;-74
2022/05/10 04:00:55;;;;;;;5.47;5.18;;;14.20;99.90;;;;;;5038997;28;20588;-73
2022/05/10 04:03:23;;;;;;;5.50;5.07;;;14.20;99.90;;;;;;5034028;28;20296;-74
2022/05/10 04:05:51;;;;;;;6.07;5.68;;;14.30;99.90;;;;;;5029339;28;20311;-74
2022/05/10 04:08:19;;;;;;;5.53;5.13;;;14.20;99.90;;;;;;5033587;28;20661;-74
2022/05/10 04:10:48;;;;;;;5.22;4.90;;;14.50;99.90;;;;;;5037462;28;20232;-74
2022/05/10 04:13:16;;;;;;;5.85;5.13;;;14.60;99.90;;;;;;5030196;28;20247;-74
2022/05/10 04:15:44;;;;;;;5.10;4.68;;;14.70;99.90;;;;;;5032093;28;20311;-74
2022/05/10 04:18:12;;;;;;;7.43;5.88;;;14.80;99.90;;;;;;5039804;28;20629;-74
2022/05/10 04:20:40;;;;;;;5.80;5.30;;;14.90;99.90;;;;;;5028480;28;20224;-73
2022/05/10 04:23:08;;;;;;;4.97;4.68;;;15.00;99.90;;;;;;5038186;28;20230;-74
2022/05/10 04:25:37;;;;;;;5.35;4.95;;;15.00;99.90;;;;;;5029438;28;20241;-73
2022/05/10 04:28:06;;;;;;;5.47;4.97;;;15.00;99.90;;;;;;5029935;28;20258;-73
2022/05/10 04:30:34;;;;;;;5.47;5.10;;;14.90;99.90;;;;;;5030250;28;20275;-74
2022/05/10 04:33:02;;;;;;;4.95;4.45;;;14.90;99.90;;;;;;5036160;28;20907;-74
2022/05/10 04:35:30;;;;;;;5.30;4.80;;;14.90;99.90;;;;;;5036336;28;20326;-74
2022/05/10 04:38:01;;;;;;;5.13;4.82;;;14.80;99.90;;;;;;5033014;28;20284;-72
2022/05/10 04:43:15;;;;;;;5.97;5.30;;;14.80;99.90;;;;;;5015384;28;20669;-73
2022/05/10 04:45:43;;;;;;;6.20;5.70;;;14.80;99.90;;;;;;5018510;28;20315;-72
2022/05/10 04:48:11;;;;;;;5.55;5.25;;;14.80;99.90;;;;;;5017021;28;20208;-73
2022/05/10 04:50:39;;;;;;;6.90;6.30;;;14.70;99.90;;;;;;5018128;28;20223;-76
2022/05/10 04:53:14;;;;;;;5.80;5.10;;;14.80;99.90;;;;;;5014839;28;20699;-74
2022/05/10 04:55:42;;;;;;;6.05;5.60;;;14.60;99.90;;;;;;5018026;28;20552;-73
2022/05/10 04:58:13;;;;;;;6.72;6.20;;;14.60;99.90;;;;;;5017640;28;20228;-74
2022/05/10 05:00:42;;;;;;;5.93;5.32;;;14.70;99.90;;;;;;5015162;28;20216;-72
2022/05/10 05:03:10;;;;;;;6.20;5.75;;;14.70;99.90;;;;;;5015245;28;20216;-74
2022/05/10 05:05:38;;;;;;;6.75;6.05;;;14.70;99.90;;;;;;5018101;28;20861;-73
2022/05/10 05:08:06;;;;;;;6.45;5.43;;;14.70;99.90;;;;;;5018308;28;20205;-71
2022/05/10 05:10:36;;;;;;;6.55;6.05;;;14.80;99.90;;;;;;5015932;28;20212;-72
2022/05/10 05:13:04;;;;;;;6.32;5.78;;;14.80;99.90;;;;;;5015644;28;20236;-73
2022/05/10 05:15:32;;;;;;;6.45;5.88;;;14.80;99.90;;;;;;5015816;28;20290;-74
2022/05/10 05:18:03;;;;;;;6.22;5.72;;;14.90;99.90;;;;;;5018755;28;20274;-72
2022/05/10 05:20:31;;;;;;;6.00;5.50;;;15.00;99.90;;;;;;5017471;28;20228;-72
2022/05/10 05:23:01;;;;;;;7.32;5.75;;;15.10;99.90;;;;;;5019840;28;20209;-72
2022/05/10 05:25:29;;;;;;;6.13;5.57;;;15.10;99.90;;;;;;5021713;28;20228;-72
2022/05/10 05:27:56;;;;;;;6.40;5.82;;;15.10;99.90;;;;;;5022893;28;20227;-71
2022/05/10 05:30:24;;;;;;;5.80;5.40;;;15.10;99.90;;;;;;5021599;28;20275;-72
2022/05/10 05:32:52;;;;;;;5.80;5.40;;;15.20;99.90;;;;;;5018988;28;20298;-73
2022/05/10 05:35:21;;;;;;;6.25;5.72;;;15.30;99.90;;;;;;5019079;28;20264;-71
2022/05/10 05:37:50;;;;;;;6.30;5.80;;;15.40;99.90;;;;;;5021828;28;20236;-72
2022/05/10 05:40:19;;;;;;;6.40;5.80;;;15.30;99.90;;;;;;5019709;28;20908;-72
2022/05/10 05:42:48;;;;;;;7.30;6.68;;;15.40;99.90;;;;;;5017050;28;20202;-72
2022/05/10 05:45:19;;;;;;;6.35;5.95;;;15.40;99.90;;;;;;5021020;28;20238;-73
2022/05/10 05:47:47;;;;;;;6.20;5.80;;;15.50;99.90;;;;;;5021611;28;20207;-74
2022/05/10 05:50:17;;;;;;;8.68;6.53;;;15.60;99.90;;;;;;5021459;28;20205;-74
2022/05/10 05:52:48;;;;;;;6.53;6.03;;;15.60;99.90;;;;;;5017199;28;20209;-73
2022/05/10 05:55:17;;;;;;;7.75;7.05;;;15.70;99.90;;;;;;5016457;28;20268;-73
2022/05/10 05:57:44;;;;;;;7.45;6.85;;;15.80;99.90;;;;;;5020489;28;20214;-73
2022/05/10 06:00:15;;;;;;;7.38;6.63;;;15.90;99.90;;;;;;5019533;28;20241;-74
2022/05/10 06:02:43;;;;;;;7.35;6.75;;;16.00;99.90;;;;;;5016564;28;20270;-73
2022/05/10 06:05:11;;;;;;;9.70;6.85;;;16.10;99.90;;;;;;5020261;28;20231;-71
2022/05/10 06:07:39;;;;;;;6.50;5.90;;;16.30;99.90;;;;;;5021424;28;20242;-74
2022/05/10 06:10:11;;;;;;;7.05;6.35;;;16.40;99.90;;;;;;5021563;28;20232;-74
2022/05/10 06:12:40;;;;;;;6.75;6.25;;;16.40;99.90;;;;;;5019170;28;20292;-75
2022/05/10 06:15:11;;;;;;;8.60;6.15;;;16.40;99.90;;;;;;5021831;28;20323;-75
2022/05/10 06:17:41;;;;;;;7.65;6.95;;;16.50;99.90;;;;;;5021467;28;20212;-73
2022/05/10 06:20:12;;;;;;;7.28;6.65;;;16.70;99.90;;;;;;5033037;28;20312;-74
2022/05/10 06:22:44;;;;;;;10.35;6.97;;;16.70;99.90;;;;;;5040836;28;20251;-73
2022/05/10 06:25:17;;;;;;;9.60;7.28;;;16.70;99.90;;;;;;5032567;28;20613;-74
2022/05/10 06:27:45;;;;;;;6.93;6.35;;;16.90;99.90;;;;;;5033257;28;20262;-73
2022/05/10 06:30:14;;;;;;;7.85;7.10;;;17.10;99.90;;;;;;5033186;28;20646;-73
2022/05/10 06:32:42;;;;;;;9.50;6.60;;;17.20;99.90;;;;;;5032815;28;20208;-73
2022/05/10 06:35:10;;;;;;;7.13;6.60;;;17.30;99.90;;;;;;5037735;28;20285;-72
2022/05/10 06:40:28;;;;;;;9.85;7.35;;;17.20;99.90;;;;;;5032793;28;20650;-72
2022/05/10 06:42:58;;;;;;;7.13;6.53;;;17.20;99.90;;;;;;5032035;28;20232;-72
2022/05/10 06:45:27;;;;;;;7.88;6.90;;;17.20;99.90;;;;;;5032800;28;20248;-73
2022/05/10 06:47:55;;;;;;;10.32;6.40;;;17.30;99.90;;;;;;5032860;28;20681;-74
2022/05/10 06:50:25;;;;;;;7.32;6.72;;;17.50;99.90;;;;;;5032544;28;20228;-71
2022/05/10 06:52:57;;;;;;;8.25;7.45;;;17.60;99.90;;;;;;5032040;28;20204;-73
2022/05/10 06:55:25;;;;;;;8.73;6.93;;;17.70;99.90;;;;;;5032696;28;20232;-73
2022/05/10 06:57:55;;;;;;;8.43;7.70;;;17.70;99.90;;;;;;5033068;28;20204;-73
2022/05/10 07:00:30;;;;;;;9.13;6.95;;;17.80;99.90;;;;;;5032472;28;20220;-74
2022/05/10 07:02:58;;;;;;;7.72;7.03;;;17.90;99.90;;;;;;5034514;28;20211;-73
2022/05/10 07:05:26;;;;;;;8.18;7.45;;;17.90;99.90;;;;;;5039456;28;20769;-73
2022/05/10 07:07:54;;;;;;;7.90;7.30;;;17.90;99.90;;;;;;5032972;28;20200;-73
2022/05/10 07:10:22;;;;;;;8.20;7.47;;;18.00;99.90;;;;;;5032370;28;20853;-73
2022/05/10 07:12:50;;;;;;;8.05;7.30;;;18.10;99.90;;;;;;5031496;28;20215;-74
2022/05/10 07:15:21;;;;;;;7.97;7.38;;;18.10;99.90;;;;;;5032050;28;20713;-73
2022/05/10 07:17:49;;;;;;;7.75;6.90;;;18.30;99.90;;;;;;5032338;28;20279;-70
2022/05/10 07:20:18;;;;;;;8.27;7.50;;;18.50;99.90;;;;;;5031863;28;20220;-73
2022/05/10 07:22:47;;;;;;;8.07;7.32;;;18.70;99.90;;;;;;5031356;28;20666;-73
2022/05/10 07:25:17;;;;;;;8.40;6.88;;;18.70;99.90;;;;;;5032033;28;20224;-73
2022/05/10 07:27:46;;;;;;;7.63;7.03;;;18.90;99.90;;;;;;5031919;28;20239;-73
2022/05/10 07:30:15;;;;;;;8.27;7.60;;;19.10;99.90;;;;;;5032057;28;20727;-73
2022/05/10 07:32:44;;;;;;;7.45;6.85;;;19.30;99.90;;;;;;5031489;28;20209;-74
2022/05/10 07:35:12;;;;;;;8.30;7.65;;;19.50;99.90;;;;;;5036200;28;20734;-72
2022/05/10 07:37:41;;;;;;;7.25;6.55;;;19.70;99.90;;;;;;5035459;28;20205;-73
2022/05/10 07:40:12;;;;;;;7.03;6.35;;;19.90;99.90;;;;;;5031556;28;20662;-73
2022/05/10 07:42:42;;;;;;;8.50;7.13;;;20.00;99.90;;;;;;5024187;28;20236;-74
2022/05/10 07:45:11;;;;;;;7.75;6.95;;;20.30;99.90;;;;;;5025783;28;20299;-73
2022/05/10 07:47:43;;;;;;;9.15;7.32;;;20.50;99.90;;;;;;5031621;28;20236;-73
2022/05/10 07:50:18;;;;;;;6.35;5.85;;;20.60;99.90;;;;;;5031629;28;20199;-73
2022/05/10 07:52:46;;;;;;;7.03;6.47;;;20.50;99.90;;;;;;5030710;28;20243;-74
2022/05/10 07:55:14;;;;;;;6.80;6.20;;;20.60;99.90;;;;;;5031542;28;20713;-74
2022/05/10 07:57:43;;;;;;;7.60;5.57;;;20.80;99.90;;;;;;5031417;28;20228;-75
2022/05/10 08:00:13;;;;;;;6.55;5.95;;;21.00;99.90;;;;;;5031349;28;20291;-73
2022/05/10 08:02:43;;;;;;;5.97;5.53;;;21.20;99.90;;;;;;5031072;28;20261;-71
2022/05/10 08:05:13;;;;;;;6.07;5.47;;;21.40;99.90;;;;;;5034437;28;20220;-73
2022/05/10 08:07:43;;;;;;;4.90;4.43;;;21.70;99.90;;;;;;5031021;28;20192;-73
2022/05/10 08:10:11;;;;;;;6.13;5.25;;;22.00;99.90;;;;;;5031147;28;20299;-74
2022/05/10 08:12:39;;;;;;;8.55;5.82;;;22.00;99.90;;;;;;5030273;28;20211;-73
2022/05/10 08:15:09;;;;;;;6.25;5.25;;;22.00;99.90;;;;;;5031057;28;20255;-73
2022/05/10 08:17:38;;;;;;;6.63;5.47;;;22.20;99.90;;;;;;5031253;28;20287;-73
2022/05/10 08:20:07;;;;;;;5.93;5.18;;;22.30;99.90;;;;;;5030871;28;20258;-75
2022/05/10 08:22:34;;;;;;;6.05;5.50;;;22.50;99.90;;;;;;5030254;28;20299;-71
2022/05/10 08:25:04;;;;;;;7.80;5.90;;;22.70;99.90;;;;;;5031064;28;20208;-74
2022/05/10 08:27:33;;;;;;;6.85;6.25;;;22.80;99.90;;;;;;5031075;28;20204;-74
2022/05/10 08:30:01;;;;;;;8.10;7.30;;;23.00;99.90;;;;;;5030970;28;20200;-73
2022/05/10 08:32:28;;;;;;;8.90;7.68;;;23.20;99.90;;;;;;5030098;28;20193;-75
2022/05/10 08:34:56;;;;;;;11.07;7.13;;;23.30;99.90;;;;;;5032922;28;20262;-73
2022/05/10 08:37:24;;;;;;;8.68;7.85;;;23.30;99.90;;;;;;5036994;28;20645;-73
2022/05/10 08:39:52;;;;;;;8.70;7.22;;;23.30;99.90;;;;;;5031026;28;20627;-74
2022/05/10 08:42:25;;;;;;;13.65;7.45;;;23.20;99.90;;;;;;5030280;28;20346;-73
2022/05/10 08:44:57;;;;;;;10.07;6.22;;;23.40;99.90;;;;;;5030687;28;20235;-73
2022/05/10 08:47:26;;;;;;;7.55;6.80;;;23.50;99.90;;;;;;5030746;28;20208;-73
2022/05/10 08:49:59;;;;;;;7.75;7.05;;;23.40;99.90;;;;;;5030441;28;20208;-75
2022/05/10 08:52:51;;;;;;;7.07;6.40;;;23.40;99.90;;;;;;5026292;28;20205;-73
2022/05/10 08:55:28;;;;;;;6.82;6.22;;;23.30;99.90;;;;;;5033525;28;20224;-73
2022/05/10 08:58:07;;;;;;;7.40;6.22;;;23.20;99.90;;;;;;5034850;28;20673;-76
2022/05/10 09:00:41;;;;;;;8.27;7.63;;;23.20;99.90;;;;;;5035111;28;20208;-73
2022/05/10 09:03:23;;;;;;;7.18;6.47;;;23.40;99.90;;;;;;5027812;28;20288;-75
2022/05/10 09:05:53;;;;;;;8.10;6.72;;;23.60;99.90;;;;;;5033011;28;20220;-75
2022/05/10 09:08:25;;;;;;;8.38;6.78;;;23.70;99.90;;;;;;5047383;28;20656;-73
2022/05/10 09:10:57;;;;;;;8.93;5.47;;;23.90;99.40;;;;;;5034637;28;20262;-73
2022/05/10 09:13:26;;;;;;;6.38;5.88;;;24.10;99.90;;;;;;5033788;28;20248;-74
2022/05/10 09:15:58;;;;;;;8.90;6.60;;;24.50;98.30;;;;;;5034546;28;20220;-74
2022/05/10 09:18:28;;;;;;;6.90;6.32;;;24.60;98.20;;;;;;5034653;28;20196;-73
2022/05/10 09:21:07;;;;;;;7.25;6.65;;;24.60;99.10;;;;;;5034461;28;20697;-73
2022/05/10 09:23:42;;;;;;;10.88;7.05;;;24.60;97.40;;;;;;5033890;28;20201;-75
2022/05/10 09:26:14;;;;;;;7.63;6.88;;;24.80;98.00;;;;;;5027830;28;20219;-73
2022/05/10 09:28:48;;;;;;;7.57;6.97;;;24.70;98.10;;;;;;5028688;28;20756;-73
2022/05/10 09:34:50;;;;;;;9.07;8.38;;;24.60;97.80;;;;;;5000357;28;20578;-74
2022/05/10 09:37:24;;;;;;;8.50;7.80;;;25.00;97.10;;;;;;5039809;28;20263;-74
2022/05/10 09:40:05;;;;;;;9.27;7.93;;;25.30;97.40;;;;;;5034028;28;20231;-74
2022/05/10 09:42:36;;;;;;;9.55;6.95;;;25.50;96.60;;;;;;5027052;28;20650;-74
2022/05/10 09:45:11;;;;;;;8.70;7.80;;;25.70;96.80;;;;;;5027833;28;20290;-74
2022/05/10 09:47:39;;;;;;;7.55;6.78;;;25.80;96.70;;;;;;5033917;28;20200;-73
2022/05/10 09:50:13;;;;;;;8.20;7.47;;;26.10;96.70;;;;;;5032508;28;20735;-74
2022/05/10 09:52:41;;;;;;;9.98;7.70;;;26.60;96.60;;;;;;5033192;28;20250;-73
2022/05/10 09:55:16;;;;;;;6.85;6.28;;;26.60;95.70;;;;;;5033268;28;20279;-74
2022/05/10 09:57:46;;;;;;;7.30;6.70;;;26.90;96.30;;;;;;5034005;28;20302;-73
2022/05/10 10:00:16;;;;;;;7.03;6.20;;;27.00;96.20;;;;;;5034169;28;20620;-73
2022/05/10 10:02:56;;;;;;;8.25;7.65;;;27.20;95.70;;;;;;5032940;28;20213;-74
2022/05/10 10:05:29;;;;;;;7.18;6.53;;;27.10;94.50;;;;;;5029442;28;20240;-74
2022/05/10 10:07:58;;;;;;;8.40;7.78;;;27.10;96.20;;;;;;5047289;28;20247;-74
2022/05/10 10:10:30;;;;;;;8.27;7.57;;;26.60;95.10;;;;;;5033810;28;20224;-73
2022/05/10 10:12:59;;;;;;;7.75;7.15;;;26.60;95.20;;;;;;5027227;28;20197;-72
2022/05/10 10:15:36;;;;;;;7.15;6.47;;;26.50;95.60;;;;;;5026828;28;20233;-76
2022/05/10 10:18:08;;;;;;;8.02;7.32;;;26.50;95.40;;;;;;5028604;28;20228;-75
2022/05/10 10:20:41;;;;;;;9.00;8.35;;;26.70;95.30;;;;;;5033239;28;20242;-73
2022/05/10 10:23:21;;;;;;;9.80;8.43;;;27.20;95.10;;;;;;5032535;28;20315;-70
2022/05/10 10:25:51;;;;;;;8.38;7.68;;;27.00;94.80;;;;;;5033267;28;20220;-74
2022/05/10 10:28:27;;;;;;;9.60;8.80;;;27.10;95.20;;;;;;5033267;28;20287;-75
2022/05/10 10:31:03;;;;;;;9.27;8.40;;;27.00;94.90;;;;;;5033234;28;20254;-74
2022/05/10 10:33:37;;;;;;;10.02;8.05;;;26.70;94.70;;;;;;5026290;28;20551;-72
2022/05/10 10:36:12;;;;;;;10.30;7.00;;;26.90;94.90;;;;;;5039466;28;20270;-75
2022/05/10 10:38:52;;;;;;;9.73;8.88;;;27.30;95.10;;;;;;5034575;28;20235;-73
2022/05/10 10:41:30;;;;;;;8.15;7.45;;;27.50;94.80;;;;;;5033162;28;20204;-74
2022/05/10 10:44:04;;;;;;;8.50;7.70;;;27.40;94.60;;;;;;5032333;28;20205;-73
2022/05/10 10:46:39;;;;;;;8.15;7.35;;;27.10;94.20;;;;;;5032691;28;20712;-75
2022/05/10 10:49:12;;;;;;;10.18;9.27;;;27.10;94.60;;;;;;5026554;28;20672;-73
2022/05/10 10:51:40;;;;;;;8.32;7.70;;;26.80;94.50;;;;;;5032730;28;20235;-73
2022/05/10 10:54:17;;;;;;;8.65;7.85;;;27.00;94.50;;;;;;5031918;28;20235;-73
2022/05/10 10:56:58;;;;;;;9.15;8.07;;;27.20;94.70;;;;;;5032497;28;20640;-74
2022/05/10 10:59:40;;;;;;;10.82;8.77;;;27.40;95.50;;;;;;5032589;28;20682;-73
2022/05/10 11:02:26;;;;;;;10.10;9.20;;;27.50;94.10;;;;;;5031797;28;20212;-74
2022/05/10 11:05:28;;;;;;;10.07;9.27;;;27.30;93.70;;;;;;5027955;28;20202;-73
2022/05/10 11:08:19;;;;;;;8.30;7.53;;;27.50;94.50;;;;;;5045460;28;20661;-74
2022/05/10 11:10:53;;;;;;;9.27;8.40;;;27.80;94.60;;;;;;5028524;28;20292;-74
2022/05/10 11:13:31;;;;;;;10.20;9.15;;;27.90;94.60;;;;;;5030340;28;20231;-74
2022/05/10 11:16:11;;;;;;;8.98;8.20;;;27.80;93.50;;;;;;5031986;28;20735;-71
2022/05/10 11:18:58;;;;;;;9.25;8.35;;;27.40;93.70;;;;;;5031732;28;20266;-74
2022/05/10 11:21:39;;;;;;;8.65;8.05;;;27.40;93.80;;;;;;5027918;28;20205;-74
2022/05/10 11:24:13;;;;;;;9.50;8.80;;;27.30;94.00;;;;;;5031286;28;20303;-74
2022/05/10 11:26:59;;;;;;;9.35;8.27;;;27.30;94.10;;;;;;5031862;28;20220;-74
2022/05/10 11:29:41;;;;;;;7.95;7.30;;;27.40;94.10;;;;;;5032160;28;20196;-72
2022/05/10 11:32:24;;;;;;;9.90;9.20;;;27.50;93.10;;;;;;5033216;28;20250;-74
2022/05/10 11:35:08;;;;;;;9.57;8.73;;;27.80;93.40;;;;;;5033221;28;20291;-73
2022/05/10 11:37:46;;;;;;;9.45;8.48;;;27.90;94.60;;;;;;5032174;28;20228;-74
2022/05/10 11:40:45;;;;;;;9.43;8.48;;;28.30;94.90;;;;;;5031865;28;20228;-74
2022/05/10 11:44:06;;;;;;;10.73;9.68;;;28.40;93.30;;;;;;5030964;28;20220;-73
2022/05/10 11:47:08;;;;;;;8.15;7.45;;;28.00;93.50;;;;;;4970265;28;20253;-74
2022/05/10 11:50:02;;;;;;;10.40;9.48;;;28.30;93.40;;;;;;4970606;28;20304;-74
2022/05/10 11:52:51;;;;;;;7.82;7.13;;;28.50;93.50;;;;;;5023086;28;20517;-73
2022/05/10 11:55:25;;;;;;;9.52;8.70;;;28.50;93.90;;;;;;5031079;28;20708;-74
2022/05/10 11:57:58;;;;;;;12.73;9.68;;;28.40;93.40;;;;;;5031425;28;20660;-73
2022/05/10 12:00:51;;;;;;;9.75;8.95;;;28.10;93.30;;;;;;5031571;28;20209;-74
2022/05/10 12:03:49;;;;;;;7.53;6.82;;;28.00;93.10;;;;;;5030689;28;20286;-71
2022/05/10 12:06:50;;;;;;;9.55;7.47;;;28.20;93.30;;;;;;5032184;28;20230;-74
2022/05/10 12:09:51;;;;;;;10.52;8.25;;;28.50;93.20;;;;;;5031039;28;20255;-74
2022/05/10 12:12:57;;;;;;;9.85;8.95;;;28.60;92.50;;;;;;5025876;28;20212;-74
2022/05/10 12:21:21;;;;;;;8.43;7.78;;;28.10;93.40;;;;;;5031104;28;20670;-74
2022/05/10 12:24:11;;;;;;;8.63;7.93;;;27.90;92.80;;;;;;5030265;28;20220;-75
2022/05/10 12:26:45;;;;;;;9.70;8.80;;;28.00;92.70;;;;;;5031124;28;20240;-74
2022/05/10 12:30:05;;;;;;;7.50;7.00;;;28.20;92.80;;;;;;5030914;28;20429;-73
2022/05/10 12:32:44;;;;;;;7.10;6.40;;;28.80;92.60;;;;;;5030283;28;20204;-72
2022/05/10 12:35:21;;;;;;;7.28;6.78;;;28.50;91.30;;;;;;5034083;28;20326;-72
2022/05/10 12:37:59;;;;;;;8.65;6.00;;;28.20;91.60;;;;;;5034212;28;20236;-73
2022/05/10 12:41:05;;;;;;;5.97;5.45;;;28.40;92.20;;;;;;5031165;28;20538;-75
2022/05/10 12:44:10;;;;;;;5.80;5.40;;;28.70;92.10;;;;;;5019700;28;20975;-74
2022/05/10 12:46:47;;;;;;;6.80;6.00;;;29.30;91.10;;;;;;5034418;28;20258;-75
2022/05/10 12:49:29;;;;;;;5.65;5.25;;;29.30;90.40;;;;;;5035932;28;20760;-73
2022/05/10 12:52:13;;;;;;;6.50;5.93;;;29.40;90.50;;;;;;5030598;28;20239;-74
2022/05/10 12:54:44;;;;;;;6.68;6.10;;;29.50;90.30;;;;;;5026014;28;20244;-74
2022/05/10 12:57:17;;;;;;;6.57;5.97;;;29.30;90.80;;;;;;5030313;28;20247;-73
2022/05/10 12:59:54;;;;;;;6.55;5.97;;;29.70;91.10;;;;;;5024417;28;20209;-75
2022/05/10 13:02:26;;;;;;;6.38;5.95;;;29.20;90.70;;;;;;5024942;28;20637;-73
2022/05/10 13:05:00;;;;;;;5.97;5.57;;;28.80;90.80;;;;;;5030674;28;20213;-74
2022/05/10 13:07:46;;;;;;;6.95;5.30;;;29.00;90.70;;;;;;5040522;28;20235;-74
2022/05/10 13:10:20;;;;;;;7.20;6.60;;;29.30;90.70;;;;;;5029155;28;20262;-76
2022/05/10 13:12:51;;;;;;;6.47;5.95;;;29.50;90.40;;;;;;5030085;28;20203;-73
2022/05/10 13:15:21;;;;;;;7.57;6.90;;;29.90;90.70;;;;;;5030366;28;20221;-74
2022/05/10 13:17:54;;;;;;;6.50;5.97;;;29.50;90.00;;;;;;5024296;28;20258;-74
2022/05/10 13:20:24;;;;;;;7.90;7.07;;;29.30;90.40;;;;;;5024589;28;20270;-73
2022/05/10 13:22:55;;;;;;;6.68;6.15;;;29.00;90.50;;;;;;5029681;28;20196;-74
2022/05/10 13:25:28;;;;;;;8.10;7.43;;;28.90;90.80;;;;;;5030235;28;20220;-71
2022/05/10 13:28:10;;;;;;;7.97;7.38;;;28.70;90.70;;;;;;5030513;28;20236;-73
2022/05/10 13:30:40;;;;;;;7.38;6.65;;;28.70;91.00;;;;;;5030589;28;20254;-73
2022/05/10 13:33:14;;;;;;;7.88;7.30;;;28.80;90.90;;;;;;5029775;28;20670;-73